Time;durP1;ratioP1;P1;durP2;ratioP2;P2;SDS_P1;SDS_P2;PMS_P1;PMS_P2;Temp;Humidity;BMP_temperature;BMP_pressure;BME280_temperature;BME280_humidity;BME280_pressure;Samples;Min_cycle;Max_cycle;Signal;HPM_P1;HPM_P2
2022/02/11 00:01:00;;;;;;;2.38;2.10;;;6.50;93.10;;;;;;5083785;28;20024;-65
2022/02/11 00:06:59;;;;;;;2.03;1.73;;;6.40;93.00;;;;;;5076970;28;20036;-65
2022/02/11 00:09:02;;;;;;;2.13;1.80;;;6.50;93.00;;;;;;5073133;28;20032;-64
2022/02/11 00:11:34;;;;;;;2.97;2.22;;;6.40;92.80;;;;;;5079337;28;20029;-64
2022/02/11 00:14:01;;;;;;;2.97;2.00;;;6.50;92.80;;;;;;5083311;28;20036;-64
2022/02/11 00:16:27;;;;;;;2.30;2.08;;;6.40;92.80;;;;;;5086587;28;20024;-64
2022/02/11 00:18:53;;;;;;;5.45;2.28;;;6.50;92.80;;;;;;5081567;28;20773;-64
2022/02/11 00:21:20;;;;;;;6.95;3.40;;;6.40;92.90;;;;;;5081998;28;20143;-64
2022/02/11 00:23:46;;;;;;;2.72;1.90;;;6.40;93.30;;;;;;5083307;28;20036;-65
2022/02/11 00:26:12;;;;;;;2.53;2.00;;;6.40;93.50;;;;;;5081247;28;20598;-65
2022/02/11 00:34:07;;;;;;;5.43;2.30;;;6.40;93.80;;;;;;5081165;28;20023;-65
2022/02/11 00:36:44;;;;;;;6.20;2.65;;;6.30;93.90;;;;;;5078968;28;20122;-65
2022/02/11 00:45:28;;;;;;;3.38;2.40;;;6.50;93.60;;;;;;5079444;28;20499;-65
2022/02/11 01:05:51;;;;;;;4.60;2.50;;;6.60;93.60;;;;;;5078588;28;20033;-64
2022/02/11 01:08:16;;;;;;;6.43;2.78;;;6.60;93.60;;;;;;5082777;28;20560;-64
2022/02/11 01:10:44;;;;;;;5.40;2.70;;;6.60;93.60;;;;;;5080681;28;20396;-64
2022/02/11 01:13:10;;;;;;;10.02;2.20;;;6.60;93.90;;;;;;5078738;28;20024;-65
2022/02/11 01:15:39;;;;;;;7.10;2.85;;;6.60;93.60;;;;;;5081731;28;20560;-64
2022/02/11 01:18:07;;;;;;;4.55;2.20;;;6.60;93.60;;;;;;5082545;28;20123;-65
2022/02/11 01:20:59;;;;;;;6.82;2.63;;;6.60;93.60;;;;;;5078626;28;20037;-65
2022/02/11 01:49:34;;;;;;;5.25;1.80;;;6.80;93.50;;;;;;5002225;28;20501;-65
2022/02/11 01:52:17;;;;;;;5.15;1.83;;;6.80;93.40;;;;;;5047554;28;20043;-65
2022/02/11 02:00:29;;;;;;;5.57;2.20;;;6.90;93.10;;;;;;5077977;28;20903;-65
2022/02/11 02:03:48;;;;;;;5.15;1.75;;;6.80;93.00;;;;;;5081014;28;20031;-65
2022/02/11 02:15:05;;;;;;;2.10;1.60;;;6.80;93.20;;;;;;5077706;28;20062;-65
2022/02/11 02:27:13;;;;;;;4.05;1.98;;;6.80;93.00;;;;;;5080016;28;20541;-65
2022/02/11 02:33:13;;;;;;;7.60;1.88;;;6.70;93.10;;;;;;5084554;28;20387;-65
2022/02/11 02:57:14;;;;;;;4.85;2.05;;;6.50;93.10;;;;;;5079944;28;20404;-65
2022/02/11 03:48:52;;;;;;;9.90;4.65;;;6.50;93.80;;;;;;5086722;28;20066;-65
2022/02/11 03:51:37;;;;;;;8.23;4.60;;;6.40;93.60;;;;;;5082083;28;20027;-65
2022/02/11 03:54:39;;;;;;;7.68;4.40;;;6.40;94.00;;;;;;5080852;28;20051;-65
2022/02/11 04:26:25;;;;;;;7.88;4.93;;;6.30;93.70;;;;;;5084094;28;20037;-65
2022/02/11 04:55:33;;;;;;;7.85;5.00;;;6.30;93.40;;;;;;5078407;28;20036;-64
2022/02/11 05:00:44;;;;;;;7.95;4.32;;;6.30;93.40;;;;;;5078225;28;20458;-65
2022/02/11 05:03:09;;;;;;;10.18;4.82;;;6.30;93.50;;;;;;5082363;28;20080;-65
2022/02/11 05:05:50;;;;;;;6.93;4.32;;;6.20;93.40;;;;;;5081640;28;20024;-65
2022/02/11 05:08:26;;;;;;;8.52;4.22;;;6.30;93.50;;;;;;5078849;28;20027;-64
2022/02/11 05:10:54;;;;;;;8.32;4.68;;;6.30;93.80;;;;;;5078892;28;20040;-64
2022/02/11 05:13:20;;;;;;;9.73;4.45;;;6.30;93.50;;;;;;5083026;28;20403;-64
2022/02/11 05:15:47;;;;;;;6.97;4.53;;;6.30;93.50;;;;;;5078202;28;20039;-65
2022/02/11 05:18:13;;;;;;;8.20;4.90;;;6.30;93.40;;;;;;5081699;28;20119;-65
2022/02/11 05:20:42;;;;;;;8.90;4.72;;;6.20;93.40;;;;;;5082894;28;20499;-65
2022/02/11 05:23:09;;;;;;;7.50;4.32;;;6.30;93.30;;;;;;5080440;28;20031;-64
2022/02/11 05:25:37;;;;;;;8.30;4.65;;;6.30;93.30;;;;;;5077962;28;20141;-64
2022/02/11 05:28:04;;;;;;;9.27;4.97;;;6.30;93.30;;;;;;5083357;28;20085;-64
2022/02/11 05:30:30;;;;;;;9.52;4.45;;;6.20;93.20;;;;;;5078457;28;20034;-65
2022/02/11 05:32:56;;;;;;;8.18;4.50;;;6.30;93.20;;;;;;5077354;28;20024;-65
2022/02/11 05:35:22;;;;;;;7.20;4.57;;;6.20;93.50;;;;;;5082408;28;20053;-66
2022/02/11 05:37:49;;;;;;;8.80;4.25;;;6.20;93.20;;;;;;5083917;28;20134;-64
2022/02/11 05:40:16;;;;;;;7.15;4.45;;;6.20;93.30;;;;;;5078463;28;20046;-64
2022/02/11 05:42:41;;;;;;;7.13;4.22;;;6.20;93.30;;;;;;5083205;28;20501;-64
2022/02/11 05:45:08;;;;;;;11.27;4.75;;;6.30;93.20;;;;;;5083605;28;20028;-64
2022/02/11 05:47:33;;;;;;;8.85;4.50;;;6.30;93.00;;;;;;5078480;28;20044;-64
2022/02/11 05:50:03;;;;;;;9.00;5.03;;;6.30;93.00;;;;;;5083469;28;20081;-64
2022/02/11 05:52:29;;;;;;;13.43;4.32;;;6.20;93.00;;;;;;5079030;28;20024;-64
2022/02/11 05:54:55;;;;;;;10.00;4.65;;;6.20;93.00;;;;;;5081152;28;20032;-64
2022/02/11 05:57:21;;;;;;;9.60;4.28;;;6.20;92.90;;;;;;5081704;28;20545;-64
2022/02/11 05:59:47;;;;;;;11.82;4.72;;;6.20;93.10;;;;;;5081379;28;20724;-64
2022/02/11 06:02:12;;;;;;;8.20;3.88;;;6.20;93.10;;;;;;5076952;28;20523;-64
2022/02/11 06:04:38;;;;;;;8.35;3.97;;;6.20;93.20;;;;;;5079963;28;20080;-65
2022/02/11 06:07:04;;;;;;;9.10;4.05;;;6.20;93.00;;;;;;5080912;28;20036;-64
2022/02/11 06:09:30;;;;;;;5.63;3.42;;;6.10;93.10;;;;;;5066922;28;20039;-62
2022/02/11 06:11:55;;;;;;;6.00;3.78;;;6.20;93.00;;;;;;5080395;28;20435;-65
2022/02/11 06:14:21;;;;;;;7.68;4.20;;;6.20;93.10;;;;;;5079298;28;20020;-63
2022/02/11 06:16:47;;;;;;;8.13;4.00;;;6.10;93.10;;;;;;5078660;28;20107;-63
2022/02/11 06:19:12;;;;;;;8.52;4.15;;;6.10;93.10;;;;;;5083893;28;20024;-63
2022/02/11 06:21:38;;;;;;;9.13;4.07;;;6.10;93.20;;;;;;5082981;28;20786;-68
2022/02/11 06:24:04;;;;;;;8.88;4.00;;;6.10;93.20;;;;;;5080276;28;20802;-71
2022/02/11 06:26:30;;;;;;;6.03;3.35;;;6.10;93.20;;;;;;5079250;28;20153;-69
2022/02/11 06:28:56;;;;;;;7.35;3.70;;;6.20;93.20;;;;;;5060972;28;20053;-69
2022/02/11 06:31:22;;;;;;;11.95;4.35;;;6.20;93.10;;;;;;5077615;28;20054;-70
2022/02/11 06:33:48;;;;;;;11.40;3.70;;;6.20;93.00;;;;;;5078184;28;20035;-69
2022/02/11 06:36:14;;;;;;;6.28;3.80;;;6.20;92.80;;;;;;5081354;28;20039;-70
2022/02/11 06:38:40;;;;;;;6.00;3.53;;;6.20;92.70;;;;;;5081212;28;20036;-69
2022/02/11 06:41:06;;;;;;;6.95;3.70;;;6.30;92.50;;;;;;5076409;28;20023;-69
2022/02/11 06:43:32;;;;;;;7.07;3.45;;;6.20;92.50;;;;;;5084290;28;20040;-69
2022/02/11 06:45:58;;;;;;;8.55;3.42;;;6.30;92.40;;;;;;5082288;28;20073;-69
2022/02/11 06:48:25;;;;;;;9.73;3.53;;;6.30;92.50;;;;;;5076734;28;20039;-70
2022/02/11 06:50:55;;;;;;;8.65;3.10;;;6.30;92.30;;;;;;5081688;28;20584;-70
2022/02/11 06:53:21;;;;;;;6.82;3.45;;;6.20;91.90;;;;;;5079454;28;20031;-73
2022/02/11 06:55:47;;;;;;;7.90;3.35;;;6.30;91.80;;;;;;5082753;28;20046;-70
2022/02/11 06:58:14;;;;;;;7.03;3.30;;;6.20;91.80;;;;;;5087031;28;20046;-68
2022/02/11 07:00:44;;;;;;;6.93;3.20;;;6.20;91.80;;;;;;5084598;28;20157;-69
2022/02/11 07:03:11;;;;;;;9.20;3.20;;;6.20;91.80;;;;;;5083633;28;20034;-69
2022/02/11 07:05:38;;;;;;;6.70;3.15;;;6.20;92.00;;;;;;5083735;28;20040;-69
2022/02/11 07:08:04;;;;;;;9.82;3.20;;;6.10;91.90;;;;;;5086020;28;20048;-69
2022/02/11 07:17:41;;;;;;;6.55;2.80;;;6.10;91.60;;;;;;5050738;28;20041;-69
2022/02/11 07:20:07;;;;;;;8.10;2.70;;;6.00;91.50;;;;;;5061489;28;20044;-69
2022/02/11 07:22:37;;;;;;;4.10;2.65;;;6.00;91.60;;;;;;5055634;28;20032;-69
2022/02/11 07:25:13;;;;;;;7.50;3.05;;;6.00;91.60;;;;;;5062897;28;20029;-67
2022/02/11 07:27:39;;;;;;;10.52;3.15;;;6.00;91.70;;;;;;5055570;28;20056;-69
2022/02/11 07:30:06;;;;;;;11.25;3.10;;;6.10;91.60;;;;;;5062993;28;20061;-69
2022/02/11 07:32:33;;;;;;;5.45;2.80;;;6.10;91.40;;;;;;5061801;28;20695;-69
2022/02/11 07:35:03;;;;;;;7.68;2.35;;;6.20;91.30;;;;;;5059768;28;20031;-70
2022/02/11 07:40:20;;;;;;;6.63;2.45;;;6.30;90.60;;;;;;5575913;22;20099;-70
2022/02/11 07:42:47;;;;;;;6.68;2.70;;;6.30;89.80;;;;;;5013028;28;20735;-68
2022/02/11 07:45:14;;;;;;;6.97;2.58;;;6.20;90.00;;;;;;5020860;28;20041;-69
2022/02/11 07:47:40;;;;;;;6.15;2.38;;;6.20;90.40;;;;;;5024157;28;20036;-69
2022/02/11 07:50:07;;;;;;;3.00;2.30;;;6.20;90.70;;;;;;5013945;28;20025;-70
2022/02/11 07:52:34;;;;;;;7.50;2.70;;;6.10;90.90;;;;;;5009861;28;20032;-69
2022/02/11 07:55:00;;;;;;;7.95;2.97;;;6.20;90.90;;;;;;5017895;28;20212;-69
2022/02/11 07:57:26;;;;;;;6.25;2.53;;;6.30;90.90;;;;;;5016747;28;20022;-69
2022/02/11 07:59:52;;;;;;;11.10;3.00;;;6.30;90.60;;;;;;5006227;28;20559;-69
2022/02/11 08:05:14;;;;;;;6.40;2.65;;;6.40;90.10;;;;;;5689493;23;20148;-73
2022/02/11 08:07:41;;;;;;;7.60;2.85;;;6.40;90.30;;;;;;5005511;28;20050;-75
2022/02/11 08:10:07;;;;;;;7.90;2.78;;;6.50;90.10;;;;;;5015308;28;20041;-73
2022/02/11 08:12:34;;;;;;;9.50;3.45;;;6.50;90.00;;;;;;5020573;28;20503;-72
2022/02/11 08:15:02;;;;;;;6.28;2.30;;;6.50;89.00;;;;;;5013013;28;20025;-73
2022/02/11 08:17:27;;;;;;;7.65;2.72;;;6.50;89.20;;;;;;5017959;28;20030;-73
2022/02/11 08:19:53;;;;;;;7.20;2.50;;;6.50;88.80;;;;;;5014525;28;20631;-74
2022/02/11 08:22:19;;;;;;;5.95;2.42;;;6.40;88.50;;;;;;5013177;28;20148;-73
2022/02/11 08:24:44;;;;;;;8.48;2.72;;;6.40;90.00;;;;;;5013465;28;20041;-72
2022/02/11 08:27:13;;;;;;;6.65;2.40;;;6.40;90.20;;;;;;5012393;28;20064;-73
2022/02/11 08:29:40;;;;;;;7.97;2.40;;;6.60;89.00;;;;;;5018915;28;20025;-73
2022/02/11 08:32:06;;;;;;;5.90;2.38;;;6.90;89.40;;;;;;5020783;28;20058;-72
2022/02/11 08:34:32;;;;;;;5.07;2.58;;;7.00;88.80;;;;;;5015875;28;20034;-72
2022/02/11 08:36:58;;;;;;;11.68;3.00;;;7.00;87.50;;;;;;5011748;28;20033;-73
2022/02/11 08:39:23;;;;;;;4.55;2.63;;;7.10;87.50;;;;;;5014348;28;20136;-73
2022/02/11 08:47:38;;;;;;;5.90;2.80;;;7.00;87.00;;;;;;4953525;28;20057;-72
2022/02/11 08:50:05;;;;;;;9.20;4.07;;;7.00;87.20;;;;;;4983579;28;20422;-72
2022/02/11 08:52:31;;;;;;;6.38;2.63;;;7.00;88.60;;;;;;4990634;28;20041;-72
2022/02/11 08:54:57;;;;;;;24.92;9.10;;;7.20;88.60;;;;;;4982097;28;20038;-72
2022/02/11 08:57:22;;;;;;;6.43;3.45;;;7.40;87.10;;;;;;4975760;28;20037;-72
2022/02/11 08:59:48;;;;;;;18.63;8.05;;;7.40;86.20;;;;;;4976542;28;20056;-72
2022/02/11 09:02:14;;;;;;;13.80;5.50;;;7.40;86.40;;;;;;4978429;28;20117;-72
2022/02/11 09:04:43;;;;;;;16.50;6.85;;;7.50;86.60;;;;;;4990558;28;20041;-73
2022/02/11 09:07:10;;;;;;;20.80;10.45;;;7.50;86.10;;;;;;4983224;28;20046;-74
2022/02/11 09:09:35;;;;;;;12.73;5.22;;;7.50;85.70;;;;;;4984312;28;20029;-74
2022/02/11 09:12:01;;;;;;;11.73;4.88;;;7.50;87.40;;;;;;4989275;28;20029;-74
2022/02/11 09:14:27;;;;;;;16.02;8.15;;;7.70;84.60;;;;;;4982880;28;20521;-71
2022/02/11 09:16:52;;;;;;;7.65;3.67;;;7.80;85.60;;;;;;4985756;28;20042;-72
2022/02/11 09:19:18;;;;;;;8.60;3.58;;;8.00;84.60;;;;;;4988613;28;20034;-73
2022/02/11 09:21:44;;;;;;;7.15;2.83;;;8.20;84.10;;;;;;4987169;28;20117;-73
2022/02/11 09:24:10;;;;;;;6.00;3.17;;;8.50;82.60;;;;;;4988930;28;20055;-72
2022/02/11 09:26:35;;;;;;;13.07;4.30;;;8.60;81.70;;;;;;4978549;28;20961;-73
2022/02/11 09:29:05;;;;;;;10.02;3.28;;;8.80;81.10;;;;;;4989634;28;20029;-72
2022/02/11 09:31:31;;;;;;;5.13;2.70;;;8.90;80.20;;;;;;4991165;28;20033;-72
2022/02/11 09:34:05;;;;;;;6.72;4.32;;;8.90;79.90;;;;;;4990081;28;20025;-72
2022/02/11 09:36:35;;;;;;;9.30;3.03;;;8.90;79.80;;;;;;4977251;28;20042;-72
2022/02/11 09:39:03;;;;;;;14.57;5.05;;;8.80;78.60;;;;;;4986410;28;20089;-72
2022/02/11 09:41:29;;;;;;;6.63;3.22;;;8.70;78.00;;;;;;4994161;28;20030;-71
2022/02/11 09:44:00;;;;;;;3.67;2.50;;;8.50;78.30;;;;;;4987654;28;20025;-72
2022/02/11 09:46:31;;;;;;;8.02;3.45;;;8.80;80.50;;;;;;4986964;28;20151;-71
2022/02/11 09:48:57;;;;;;;8.65;3.75;;;9.20;79.40;;;;;;4982493;28;20066;-71
2022/02/11 09:51:22;;;;;;;6.75;3.65;;;9.20;74.60;;;;;;4983916;28;20831;-71
2022/02/11 09:53:49;;;;;;;12.18;4.93;;;9.00;74.40;;;;;;4978496;28;20030;-72
2022/02/11 09:56:15;;;;;;;11.68;4.75;;;8.90;76.70;;;;;;4984229;28;20623;-72
2022/02/11 09:58:41;;;;;;;7.57;3.80;;;8.70;76.20;;;;;;4987235;28;20042;-71
2022/02/11 10:01:09;;;;;;;9.85;3.10;;;8.70;78.10;;;;;;4981670;28;20026;-72
2022/02/11 10:03:35;;;;;;;8.68;3.25;;;8.70;78.40;;;;;;4985137;28;20046;-72
2022/02/11 10:06:06;;;;;;;8.20;2.70;;;8.80;78.50;;;;;;4984071;28;20034;-73
2022/02/11 10:08:34;;;;;;;12.68;4.97;;;8.90;78.20;;;;;;4971873;28;20418;-72
2022/02/11 10:11:02;;;;;;;8.52;3.75;;;8.90;76.50;;;;;;4992859;28;20549;-72
2022/02/11 10:13:32;;;;;;;9.00;2.80;;;8.80;75.80;;;;;;4991794;28;20134;-72
2022/02/11 10:16:10;;;;;;;8.60;2.92;;;8.70;76.80;;;;;;4988686;28;20393;-72
2022/02/11 10:18:38;;;;;;;8.30;2.72;;;8.70;78.10;;;;;;4985719;28;20532;-72
2022/02/11 10:21:20;;;;;;;4.78;2.78;;;8.70;77.30;;;;;;4991105;28;20066;-75
2022/02/11 10:23:48;;;;;;;5.70;3.00;;;8.60;77.60;;;;;;4988656;28;20120;-73
2022/02/11 10:26:16;;;;;;;12.40;4.70;;;8.60;75.50;;;;;;4989157;28;20030;-73
2022/02/11 10:28:41;;;;;;;9.57;3.15;;;8.50;75.20;;;;;;4986523;28;20034;-73
2022/02/11 10:31:15;;;;;;;12.57;4.55;;;8.50;76.60;;;;;;4983292;28;20026;-74
2022/02/11 10:34:08;;;;;;;15.77;5.93;;;8.70;76.10;;;;;;4989920;28;20053;-73
2022/02/11 10:36:40;;;;;;;10.65;4.50;;;8.90;75.00;;;;;;4983399;28;20136;-73
2022/02/11 10:39:25;;;;;;;8.65;4.10;;;9.40;76.30;;;;;;4988352;28;20145;-73
2022/02/11 10:41:57;;;;;;;12.73;7.40;;;9.80;71.00;;;;;;4980741;28;20034;-73
2022/02/11 10:44:34;;;;;;;14.30;9.43;;;9.90;71.40;;;;;;4990364;28;20033;-73
2022/02/11 10:47:04;;;;;;;10.02;4.30;;;9.80;71.30;;;;;;4985770;28;20038;-73
2022/02/11 10:49:44;;;;;;;8.43;5.05;;;9.70;71.00;;;;;;4986869;28;20113;-73
2022/02/11 10:52:19;;;;;;;14.15;5.90;;;9.50;71.40;;;;;;4984352;28;20049;-72
2022/02/11 10:54:49;;;;;;;15.15;5.32;;;9.20;69.90;;;;;;4985747;28;20477;-72
2022/02/11 10:57:16;;;;;;;15.10;6.78;;;8.90;71.50;;;;;;4987506;28;20049;-72
2022/02/11 10:59:47;;;;;;;12.90;6.82;;;8.60;73.20;;;;;;4989689;28;20038;-72
2022/02/11 11:02:17;;;;;;;13.52;5.07;;;8.50;75.90;;;;;;4982768;28;20783;-72
2022/02/11 11:04:47;;;;;;;13.02;4.28;;;8.60;75.00;;;;;;4981123;28;20045;-72
2022/02/11 11:07:21;;;;;;;10.07;4.22;;;8.40;74.20;;;;;;4976516;28;20537;-72
2022/02/11 11:09:48;;;;;;;7.95;3.47;;;8.20;75.40;;;;;;4994286;28;20022;-72
2022/02/11 11:12:18;;;;;;;7.43;3.38;;;8.10;76.60;;;;;;4989367;28;20392;-72
2022/02/11 11:14:49;;;;;;;7.95;3.30;;;8.10;76.50;;;;;;4983851;28;20991;-73
2022/02/11 11:17:17;;;;;;;8.52;3.08;;;8.10;77.20;;;;;;4978008;28;20089;-73
2022/02/11 11:19:43;;;;;;;12.15;4.68;;;8.10;77.40;;;;;;4984617;28;20556;-74
2022/02/11 11:22:15;;;;;;;10.35;3.92;;;8.20;76.60;;;;;;4991535;28;20065;-72
2022/02/11 11:24:51;;;;;;;8.63;3.60;;;8.10;76.70;;;;;;4978121;28;20474;-73
2022/02/11 11:27:49;;;;;;;7.00;2.97;;;8.00;77.00;;;;;;4979407;28;20045;-73
2022/02/11 11:30:30;;;;;;;5.78;2.67;;;7.90;78.00;;;;;;4967917;28;20077;-72
2022/02/11 11:33:05;;;;;;;6.60;3.17;;;7.90;78.90;;;;;;4978818;28;20036;-71
2022/02/11 11:35:31;;;;;;;5.32;3.13;;;7.80;79.20;;;;;;4987429;28;20069;-71
2022/02/11 11:38:18;;;;;;;6.13;4.13;;;7.70;81.00;;;;;;4988582;28;20041;-71
2022/02/11 11:41:10;;;;;;;5.47;3.03;;;7.70;82.30;;;;;;4981793;28;20077;-72
2022/02/11 11:43:41;;;;;;;3.63;2.58;;;7.70;81.50;;;;;;4985658;28;20042;-70
2022/02/11 11:46:20;;;;;;;4.90;1.92;;;7.70;81.90;;;;;;4989996;28;20081;-72
2022/02/11 11:48:59;;;;;;;3.53;1.83;;;7.70;82.40;;;;;;4985419;28;20522;-71
2022/02/11 11:51:37;;;;;;;8.00;3.83;;;7.80;82.40;;;;;;4989162;28;20112;-72
2022/02/11 11:54:19;;;;;;;8.93;5.43;;;7.90;82.10;;;;;;4991852;28;20079;-71
2022/02/11 11:56:57;;;;;;;9.18;3.88;;;7.80;81.50;;;;;;4988873;28;20046;-71
2022/02/11 11:59:24;;;;;;;3.53;2.95;;;7.70;82.30;;;;;;4984415;28;20034;-71
2022/02/11 12:02:00;;;;;;;5.15;3.85;;;7.70;82.40;;;;;;4991598;28;20034;-71
2022/02/11 12:04:27;;;;;;;3.55;3.17;;;7.70;82.40;;;;;;4982661;28;20113;-71
2022/02/11 12:06:56;;;;;;;5.88;3.45;;;7.70;82.10;;;;;;4984350;28;20034;-72
2022/02/11 12:09:24;;;;;;;4.65;2.78;;;7.70;82.50;;;;;;4979887;28;20027;-72
2022/02/11 12:11:55;;;;;;;4.45;3.10;;;7.60;82.00;;;;;;4985875;28;20465;-72
2022/02/11 12:14:20;;;;;;;7.97;3.70;;;7.60;83.00;;;;;;4986390;28;20031;-72
2022/02/11 12:16:47;;;;;;;6.40;3.67;;;7.60;82.50;;;;;;4987213;28;20053;-72
2022/02/11 12:19:13;;;;;;;12.70;4.45;;;7.50;83.50;;;;;;4979863;28;20485;-72
2022/02/11 12:21:39;;;;;;;11.88;5.43;;;7.50;82.50;;;;;;4989793;28;20042;-72
2022/02/11 12:29:34;;;;;;;9.20;4.88;;;7.60;84.90;;;;;;4980238;28;20038;-72
2022/02/11 12:32:03;;;;;;;8.13;4.35;;;7.70;84.30;;;;;;4981283;28;20080;-71
2022/02/11 12:34:29;;;;;;;7.63;4.05;;;7.80;82.00;;;;;;4979893;28;20019;-69
2022/02/11 12:37:08;;;;;;;6.60;3.65;;;7.70;82.10;;;;;;4988644;28;20028;-70
2022/02/11 12:39:35;;;;;;;2.92;2.58;;;7.70;81.90;;;;;;4988997;28;20463;-70
2022/02/11 12:42:00;;;;;;;2.45;2.13;;;7.60;83.20;;;;;;4986933;28;20092;-72
2022/02/11 12:44:28;;;;;;;4.88;3.00;;;7.60;84.20;;;;;;4985573;28;20026;-72
2022/02/11 12:46:56;;;;;;;7.95;4.13;;;7.70;84.80;;;;;;4991871;28;20042;-71
2022/02/11 12:49:22;;;;;;;3.63;2.40;;;7.80;83.20;;;;;;4985551;28;20034;-72
2022/02/11 12:51:49;;;;;;;4.13;2.30;;;7.90;81.70;;;;;;4984924;28;20038;-71
2022/02/11 12:54:15;;;;;;;10.20;5.05;;;7.80;82.40;;;;;;4990144;28;20029;-71
2022/02/11 12:56:41;;;;;;;18.05;6.70;;;7.80;83.50;;;;;;5004335;28;20034;-72
2022/02/11 12:59:07;;;;;;;9.00;4.47;;;7.90;81.60;;;;;;5003677;28;20033;-71
2022/02/11 13:01:33;;;;;;;5.55;3.17;;;7.80;81.70;;;;;;5004567;28;20034;-70
2022/02/11 13:03:59;;;;;;;11.23;3.97;;;7.80;81.90;;;;;;5004094;28;20749;-72
2022/02/11 13:06:25;;;;;;;11.68;5.15;;;7.70;82.40;;;;;;5004121;28;20096;-71
2022/02/11 13:09:06;;;;;;;39.63;12.75;;;7.70;83.30;;;;;;5003513;28;20041;-71
2022/02/11 13:11:33;;;;;;;17.33;6.80;;;7.80;83.70;;;;;;5004842;28;20096;-71
2022/02/11 13:14:06;;;;;;;14.18;5.55;;;7.80;83.90;;;;;;4996855;28;20046;-71
2022/02/11 13:16:33;;;;;;;11.52;4.65;;;7.80;83.90;;;;;;4984631;28;20042;-72
2022/02/11 13:19:15;;;;;;;9.05;4.32;;;7.90;83.80;;;;;;4984640;28;20070;-71
2022/02/11 13:21:41;;;;;;;8.68;3.97;;;8.00;83.30;;;;;;4983984;28;20034;-72
2022/02/11 13:24:08;;;;;;;4.28;3.08;;;8.00;82.60;;;;;;4984775;28;20056;-71
2022/02/11 13:26:36;;;;;;;16.05;5.88;;;8.00;82.60;;;;;;4984772;28;20497;-72
2022/02/11 13:29:02;;;;;;;6.63;3.80;;;8.00;82.30;;;;;;4983918;28;20093;-72
2022/02/11 13:31:45;;;;;;;8.48;4.30;;;8.00;82.60;;;;;;4984505;28;20030;-71
2022/02/11 13:34:11;;;;;;;11.45;4.13;;;8.20;82.90;;;;;;4977816;28;20038;-71
2022/02/11 13:36:37;;;;;;;34.75;10.05;;;8.20;82.60;;;;;;4983959;28;20482;-72
2022/02/11 13:39:03;;;;;;;16.27;5.80;;;8.20;82.40;;;;;;4984032;28;20125;-72
2022/02/11 13:41:38;;;;;;;21.08;7.32;;;8.10;82.50;;;;;;4984144;28;20034;-71
2022/02/11 13:44:10;;;;;;;14.85;5.70;;;8.10;83.80;;;;;;4983419;28;20045;-73
2022/02/11 13:46:41;;;;;;;17.08;6.68;;;8.00;82.50;;;;;;4983201;28;20038;-73
2022/02/11 13:49:10;;;;;;;24.23;13.07;;;8.00;82.60;;;;;;4983331;28;20052;-73
2022/02/11 13:51:37;;;;;;;34.80;13.77;;;7.90;83.10;;;;;;4983789;28;20482;-72
2022/02/11 13:54:28;;;;;;;22.38;13.35;;;7.80;84.40;;;;;;4987303;28;20240;-72
2022/02/11 13:56:54;;;;;;;9.60;7.20;;;7.80;84.60;;;;;;4999920;28;20054;-72
2022/02/11 13:59:30;;;;;;;10.40;5.38;;;7.80;85.20;;;;;;5003416;28;20037;-73
2022/02/11 14:02:09;;;;;;;9.18;5.10;;;7.90;85.50;;;;;;5003862;28;20038;-73
2022/02/11 14:04:34;;;;;;;9.07;4.45;;;7.90;85.00;;;;;;5003035;28;20038;-73
2022/02/11 14:07:02;;;;;;;10.85;4.68;;;7.90;84.70;;;;;;5003832;28;20036;-72
2022/02/11 14:09:36;;;;;;;12.98;4.93;;;8.00;84.80;;;;;;5003431;28;20096;-72
2022/02/11 14:12:07;;;;;;;9.63;5.22;;;8.00;84.60;;;;;;5003176;28;20061;-74
2022/02/11 14:14:34;;;;;;;5.38;3.67;;;8.00;84.50;;;;;;5003099;28;20120;-73
2022/02/11 14:17:00;;;;;;;6.47;4.55;;;8.00;85.40;;;;;;5003702;28;20352;-72
2022/02/11 14:19:27;;;;;;;4.95;4.40;;;8.00;85.50;;;;;;5002602;28;20100;-72
2022/02/11 14:21:54;;;;;;;5.95;4.00;;;8.00;85.90;;;;;;5002844;28;20073;-72
2022/02/11 14:24:21;;;;;;;8.07;4.90;;;8.00;85.30;;;;;;5002737;28;20038;-72
2022/02/11 14:26:48;;;;;;;6.47;4.45;;;8.00;85.50;;;;;;5002629;28;20603;-72
2022/02/11 14:29:15;;;;;;;6.63;4.75;;;8.00;85.30;;;;;;5002945;28;20025;-73
2022/02/11 14:31:41;;;;;;;5.22;3.88;;;8.00;85.50;;;;;;4993459;28;20022;-73
2022/02/11 14:34:08;;;;;;;7.82;4.90;;;8.00;85.60;;;;;;4989429;28;20029;-72
2022/02/11 14:36:36;;;;;;;9.75;4.05;;;8.00;84.90;;;;;;4978931;28;20184;-72
2022/02/11 14:39:02;;;;;;;7.28;4.05;;;8.00;85.20;;;;;;4983368;28;20113;-72
2022/02/11 14:41:46;;;;;;;6.85;4.03;;;7.90;85.90;;;;;;4975622;28;20748;-73
2022/02/11 14:44:16;;;;;;;6.35;3.80;;;7.90;86.50;;;;;;4982496;28;20029;-72
2022/02/11 14:46:42;;;;;;;4.35;3.95;;;7.90;85.50;;;;;;4973615;28;20126;-73
2022/02/11 14:49:08;;;;;;;7.60;4.53;;;7.90;86.40;;;;;;4977579;28;20030;-71
2022/02/11 14:51:34;;;;;;;7.13;3.65;;;7.90;85.20;;;;;;4984034;28;20034;-71
2022/02/11 14:54:11;;;;;;;6.03;3.60;;;7.90;85.20;;;;;;4991326;28;20045;-72
2022/02/11 14:56:40;;;;;;;5.32;3.88;;;8.00;85.30;;;;;;4984755;28;20035;-71
2022/02/11 14:59:08;;;;;;;4.47;3.85;;;8.00;85.60;;;;;;4982166;28;20442;-71
2022/02/11 15:01:44;;;;;;;13.07;4.50;;;8.00;86.20;;;;;;4983639;28;20041;-72
2022/02/11 15:04:11;;;;;;;7.18;4.60;;;8.00;85.80;;;;;;4976457;28;20038;-72
2022/02/11 15:06:37;;;;;;;5.53;3.70;;;8.00;85.90;;;;;;4982306;28;20654;-73
2022/02/11 15:09:04;;;;;;;5.25;3.50;;;8.00;85.40;;;;;;4978341;28;20097;-73
2022/02/11 15:11:32;;;;;;;6.03;4.30;;;8.00;85.60;;;;;;4976783;28;20035;-73
2022/02/11 15:13:57;;;;;;;5.75;4.63;;;8.00;85.00;;;;;;4982620;28;20246;-73
2022/02/11 15:16:23;;;;;;;7.38;4.47;;;8.10;85.00;;;;;;4982830;28;20562;-72
2022/02/11 15:18:49;;;;;;;8.02;4.15;;;8.00;85.00;;;;;;4979841;28;20042;-73
2022/02/11 15:21:17;;;;;;;4.78;3.55;;;8.00;85.40;;;;;;4981417;28;20041;-73
2022/02/11 15:23:43;;;;;;;5.97;4.53;;;7.90;85.80;;;;;;4987378;28;20061;-73
2022/02/11 15:26:10;;;;;;;5.72;4.03;;;7.90;86.00;;;;;;4990163;28;20442;-73
2022/02/11 15:28:37;;;;;;;5.55;3.60;;;7.90;86.10;;;;;;4985872;28;20846;-73
2022/02/11 15:31:04;;;;;;;7.03;4.55;;;7.90;86.30;;;;;;4979126;28;20031;-72
2022/02/11 15:33:31;;;;;;;7.50;4.78;;;7.80;86.00;;;;;;4988217;28;20779;-73
2022/02/11 15:35:57;;;;;;;8.57;5.28;;;7.80;85.90;;;;;;4985022;28;20501;-73
2022/02/11 15:38:23;;;;;;;5.50;4.70;;;7.70;86.10;;;;;;4988383;28;20038;-73
2022/02/11 15:40:50;;;;;;;7.03;4.72;;;7.70;86.40;;;;;;4981245;28;20042;-73
2022/02/11 15:43:16;;;;;;;4.00;3.60;;;7.70;86.30;;;;;;4977143;28;20587;-73
2022/02/11 15:45:43;;;;;;;5.15;3.92;;;7.60;86.30;;;;;;4979459;28;20034;-73
2022/02/11 15:48:09;;;;;;;6.40;4.60;;;7.50;86.30;;;;;;4984139;28;20054;-73
2022/02/11 15:50:35;;;;;;;5.47;4.15;;;7.30;87.00;;;;;;4979977;28;20042;-73
2022/02/11 15:53:01;;;;;;;7.15;4.55;;;7.20;87.80;;;;;;4988085;28;20033;-71
2022/02/11 15:55:27;;;;;;;7.90;4.90;;;7.00;88.00;;;;;;4982096;28;20027;-73
2022/02/11 15:57:52;;;;;;;5.85;4.93;;;6.80;88.40;;;;;;4985710;28;20556;-73
2022/02/11 16:00:18;;;;;;;6.68;4.53;;;6.70;89.30;;;;;;4981925;28;20041;-73
2022/02/11 16:02:45;;;;;;;6.00;5.07;;;6.70;90.10;;;;;;4983961;28;20056;-73
2022/02/11 16:05:11;;;;;;;8.35;5.28;;;6.60;90.10;;;;;;4987318;28;20068;-73
2022/02/11 16:07:38;;;;;;;7.40;5.82;;;6.50;90.20;;;;;;4992388;28;20120;-72
2022/02/11 16:10:05;;;;;;;7.00;4.80;;;6.40;90.20;;;;;;4980935;28;20022;-73
2022/02/11 16:12:31;;;;;;;9.68;5.53;;;6.30;90.40;;;;;;4991631;28;20039;-72
2022/02/11 16:14:57;;;;;;;7.80;5.55;;;6.20;90.40;;;;;;4986129;28;20674;-72
2022/02/11 16:17:23;;;;;;;7.72;5.72;;;6.10;90.70;;;;;;4984258;28;20034;-72
2022/02/11 16:19:53;;;;;;;7.65;5.53;;;6.00;90.80;;;;;;4985751;28;20049;-73
2022/02/11 16:22:19;;;;;;;9.40;6.13;;;5.90;91.00;;;;;;4988244;28;20483;-73
2022/02/11 16:24:46;;;;;;;9.07;6.30;;;5.80;91.10;;;;;;4981994;28;20038;-73
2022/02/11 16:27:15;;;;;;;15.27;6.97;;;5.80;91.20;;;;;;4976295;28;20121;-73
2022/02/11 16:29:43;;;;;;;9.57;6.75;;;5.80;91.50;;;;;;4987678;28;20041;-73
2022/02/11 16:32:09;;;;;;;8.75;5.93;;;5.90;91.50;;;;;;4973259;28;20181;-72
2022/02/11 16:34:35;;;;;;;6.68;5.47;;;6.00;91.60;;;;;;4975280;28;20035;-72
2022/02/11 16:37:02;;;;;;;12.13;6.15;;;6.10;91.60;;;;;;4987274;28;20121;-73
2022/02/11 16:39:28;;;;;;;9.00;5.53;;;6.20;91.60;;;;;;4979574;28;20030;-71
2022/02/11 16:41:53;;;;;;;7.35;5.57;;;6.30;91.50;;;;;;4990783;28;20048;-74
2022/02/11 16:44:19;;;;;;;8.93;5.28;;;6.40;91.50;;;;;;4981215;28;20038;-75
2022/02/11 16:46:46;;;;;;;11.90;5.53;;;6.40;91.30;;;;;;4978824;28;20041;-70
2022/02/11 16:49:18;;;;;;;7.40;5.68;;;6.50;91.20;;;;;;4988019;28;20398;-73
2022/02/11 16:51:47;;;;;;;8.65;5.70;;;6.50;91.10;;;;;;4985477;28;21076;-73
2022/02/11 16:54:14;;;;;;;9.55;5.45;;;6.50;90.90;;;;;;4992105;28;20033;-74
2022/02/11 16:56:40;;;;;;;10.13;6.15;;;6.40;90.80;;;;;;4988942;28;20039;-74
2022/02/11 16:59:06;;;;;;;9.57;6.07;;;6.30;91.00;;;;;;4986744;28;20051;-72
2022/02/11 17:01:31;;;;;;;9.23;5.88;;;6.30;91.10;;;;;;4985100;28;20043;-68
2022/02/11 17:03:59;;;;;;;11.00;5.85;;;6.30;91.20;;;;;;4983843;28;20042;-74